Close

Questo sito utlizza cookie. Può leggere come li usiamo nella nostra Privacy Policy.

Ronchi Tower
Ronchi Tower

From Facebook

METAR & TAF

2022/12/05 20:50 LIPQ 052050Z AUTO VRB02KT 9999 OVC009/// 10/09 Q1016
2022/12/05 18:31 TAF AMD LIPQ 051826Z 0518/0618 VRB05KT 9999 BKN020 TEMPO 0518/0521 3000 TSRA BECMG 0522/0524 4000 BR PROB40 TEMPO 0602/0608 0800 FG BECMG 0608/0610 8000
2022/12/05 20:50 LIPZ 052050Z 25007KT 3500 BR SCT014 09/09 Q1016 BECMG 0800 FG
2022/12/05 18:22 TAF LIPZ 051700Z 0518/0624 VRB06KT 9999 SCT010 BKN070 BECMG 0518/0520 3000 BR TEMPO 0522/0608 0600 FG BKN002
2022/12/05 20:50 LIPH 052050Z 24003KT 0900 R07/1800D BCFG SCT010 09/09 Q1016
2022/12/05 18:22 TAF LIPH 051700Z 0518/0618 VRB05KT 7000 BKN040 BECMG 0518/0520 2000 BR TEMPO 0522/0608 0400 FG
2022/12/05 20:50 LIRF 052050Z 08005KT 9999 SCT020 12/11 Q1019 NOSIG
2022/12/05 18:23 TAF LIRF 051700Z 0518/0624 15008KT 9999 SCT020
2022/12/05 20:50 LIML 052050Z 24003KT 5000 BCFG FEW005 SCT030 05/05 Q1018 NOSIG
2022/12/05 18:22 TAF LIML 051700Z 0518/0618 VRB05KT 6000 SCT008 BKN010 BECMG 0521/0524 0600 FG OVC001 BECMG 0607/0610 6000 SCT030
2022/12/05 20:50 EDDM 052050Z AUTO 21008KT 9999 FEW041 02/02 Q1019 NOSIG
2022/12/05 18:27 TAF EDDM 051700Z 0518/0624 24005KT 9999 SCT008 BKN025 TEMPO 0518/0521 4000 RADZ BKN007 TEMPO 0601/0608 0600 FZFG PROB30 TEMPO 0604/0608 VV001 PROB30 TEMPO 0608/0610 BKN002
2022/12/05 20:50 EGSS 052050Z AUTO 36005KT 9999 NCD 04/03 Q1024
2022/12/05 18:09 TAF EGSS 051706Z 0518/0624 36008KT 9999 FEW045 TEMPO 0523/0601 BKN011 BECMG 0611/0614 BKN006 TEMPO 0614/0619 BKN012 BECMG 0619/0622 9000 BKN003 PROB30 TEMPO 0622/0624 9999 BKN005
2022/12/05 20:50 EDDF 052050Z AUTO 20004KT 9999 OVC014 04/03 Q1019 NOSIG
2022/12/05 18:37 TAF COR EDDF 051728Z 0518/0624 22004KT 7000 SCT004 OVC015 TEMPO 0518/0604 2500 DZ BR BKN004 OVC008 TEMPO 0604/0615 4500 -DZ BR BKN008 PROB30 TEMPO 0606/0610 -RASN

FlightRadar24

Radar Meteo

Traffic data

Agosto 2018

Passeggeri: 63892-12,9% (rank: 23)
Nazionali 34490 -19,8%
Internazionali 29193 -3,0%

Movimenti: 1307+11,7% (rank: 24)
Tot commerciale 556 -7,2%
Aviazione generale 751 +31,5%

Cargo (tons): 20,6+62,5% (rank: 21)

Gennaio - Agosto 2018

Passeggeri: 507438-3,5% (rank: 23)
Nazionali 322655 -4,9%
Internazionali 182927 -0,7%

Movimenti: 10366-4,25 (rank: 22)
Tot commerciale 5328 -11,0%
Aviazione generale 5038 +4,2%

Cargo (tons): 299,2+61,9% (rank: 20)

Photo

Gulfstream Aerospace G550
Gulfstream Aerospace G550
Distinct views: 27
Reims F152 II
Reims F152 II
Distinct views: 119
Reims F152 II
Reims F152 II
Distinct views: 267
Dassault Falcon 10
Dassault Falcon 10
Total views: 6978